This is the latest recevied weather packets stored in our database for station/object KG5MMT-12. If no packets are shown the sender has not sent any weather packets the latest 1 day(s).
| Time | Temp. | Humidity | Pressure | Rain* | Wind** | Luminosity | Snow |
|---|---|---|---|---|---|---|---|
| 1778026429 | 12.78° C | 51% | 0 hPa | 0 mm | 1.34 m/s, 243° | - | - |
| 1778026134 | 12.78° C | 51% | 0 hPa | 0 mm | 0 m/s | - | - |
| 1778025829 | 12.78° C | 52% | 0 hPa | 0 mm | 4.02 m/s, 0° | - | - |
| 1778025529 | 12.78° C | 53% | 0 hPa | 0 mm | 0.45 m/s, 307° | - | - |
| 1778025229 | 12.22° C | 52% | 0 hPa | 0 mm | 0 m/s | - | - |
| 1778024929 | 12.78° C | 52% | 0 hPa | 0 mm | 0.45 m/s, 307° | - | - |
| 1778024629 | 12.78° C | 51% | 0 hPa | 0 mm | 0 m/s | - | - |
| 1778024329 | 12.78° C | 51% | 0 hPa | 0 mm | 0 m/s | - | - |
| 1778024029 | 12.78° C | 51% | 0 hPa | 0 mm | 2.24 m/s, 261° | - | - |
| 1778023729 | 12.78° C | 51% | 0 hPa | 0 mm | 1.79 m/s, 265° | - | - |
| 1778023429 | 12.78° C | 51% | 0 hPa | 0 mm | 1.34 m/s, 341° | - | - |
| 1778023129 | 12.78° C | 51% | 0 hPa | 0 mm | 0.89 m/s, 241° | - | - |
| 1778022829 | 12.78° C | 51% | 0 hPa | 0 mm | 1.34 m/s, 331° | - | - |
| 1778022529 | 12.78° C | 52% | 0 hPa | 0 mm | 0.45 m/s, 306° | - | - |
| 1778022229 | 12.78° C | 51% | 0 hPa | 0 mm | 1.34 m/s, 243° | - | - |
| 1778021929 | 12.78° C | 52% | 0 hPa | 0 mm | 0.45 m/s, 230° | - | - |
| 1778021629 | 13.33° C | 53% | 0 hPa | 0 mm | 0.89 m/s, 47° | - | - |
| 1778021329 | 13.33° C | 50% | 0 hPa | 0 mm | 2.24 m/s, 21° | - | - |
| 1778021029 | 13.89° C | 46% | 0 hPa | 0 mm | 0.45 m/s, 268° | - | - |
| 1778020729 | 13.89° C | 46% | 0 hPa | 0 mm | 1.79 m/s, 258° | - | - |
| 1778020429 | 13.89° C | 45% | 0 hPa | 0 mm | 1.34 m/s, 282° | - | - |
| 1778020129 | 13.89° C | 44% | 0 hPa | 0 mm | 1.79 m/s, 255° | - | - |
| 1778019829 | 14.44° C | 45% | 0 hPa | 0 mm | 0.45 m/s, 274° | - | - |
| 1778019529 | 14.44° C | 46% | 0 hPa | 0 mm | 0.89 m/s, 295° | - | - |
| 1778019229 | 14.44° C | 46% | 0 hPa | 0 mm | 1.79 m/s, 2° | - | - |
* Rain latest hour (hover to see other rain measurements)
** Current wind speed in m/s (hover to see current wind gust speed)